Time,TemperatureF,DewpointF,PressureIn,WindDirection,WindDirectionDegrees,WindSpeedMPH,WindSpeedGustMPH,Humidity,HourlyPrecipIn,Conditions,Clouds,dailyrainin,SoftwareType,DateUTC
2013-02-13 00:04:00,28.0,16.3,30.02,NNW,334,0.0,0.0,61,0.00,NA,NA,-99.99,VWS Version 10.38,2013-02-13 05:04:00,
2013-02-13 00:09:00,27.9,16.2,30.02,NNW,334,0.0,0.0,61,0.00,NA,NA,-99.99,VWS Version 10.38,2013-02-13 05:09:00,
2013-02-13 00:14:00,27.9,16.2,30.02,NNW,334,0.0,0.0,61,0.00,NA,NA,-99.99,VWS Version 10.38,2013-02-13 05:14:00,
2013-02-13 00:19:00,27.5,15.8,30.02,NNW,334,0.0,0.0,61,0.00,NA,NA,-99.99,VWS Version 10.38,2013-02-13 05:19:00,
2013-02-13 00:24:00,27.3,16.0,30.02,NNW,334,0.0,0.0,62,0.00,NA,NA,-99.99,VWS Version 10.38,2013-02-13 05:24:00,
2013-02-13 00:29:00,27.5,16.6,30.02,NW,312,0.0,0.0,63,0.00,NA,NA,-99.99,VWS Version 10.38,2013-02-13 05:29:00,
2013-02-13 00:34:00,27.9,17.3,30.02,ENE,64,0.0,0.0,64,0.00,NA,NA,-99.99,VWS Version 10.38,2013-02-13 05:34:00,
2013-02-13 00:39:00,28.0,17.5,30.02,West,273,2.2,2.2,64,0.00,NA,NA,-99.99,VWS Version 10.38,2013-02-13 05:39:00,
2013-02-13 00:44:00,28.6,18.3,30.02,West,273,0.0,0.0,65,0.00,NA,NA,-99.99,VWS Version 10.38,2013-02-13 05:44:00,
2013-02-13 00:49:00,28.8,18.5,30.02,West,273,0.0,0.0,65,0.00,NA,NA,-99.99,VWS Version 10.38,2013-02-13 05:49:00,
2013-02-13 00:54:00,28.9,18.7,30.02,West,273,0.0,0.0,65,0.00,NA,NA,-99.99,VWS Version 10.38,2013-02-13 05:54:00,
2013-02-13 00:59:00,29.1,19.2,30.02,West,273,0.0,0.0,66,0.00,NA,NA,-99.99,VWS Version 10.38,2013-02-13 05:59:00,
2013-02-13 01:04:00,29.3,19.4,30.02,West,273,0.0,0.0,66,0.00,NA,NA,-99.99,VWS Version 10.38,2013-02-13 06:04:00,
2013-02-13 01:09:00,29.5,19.5,30.02,West,273,0.0,0.0,66,0.00,NA,NA,-99.99,VWS Version 10.38,2013-02-13 06:09:00,
2013-02-13 01:14:00,29.5,19.5,30.02,West,273,0.0,0.0,66,0.00,NA,NA,-99.99,VWS Version 10.38,2013-02-13 06:14:00,
2013-02-13 01:19:00,29.7,19.7,30.02,West,273,0.0,0.0,66,0.00,NA,NA,-99.99,VWS Version 10.38,2013-02-13 06:19:00,
2013-02-13 01:24:00,29.8,20.2,30.02,West,273,0.0,0.0,67,0.00,NA,NA,-99.99,VWS Version 10.38,2013-02-13 06:24:00,
2013-02-13 01:29:00,29.8,20.2,30.02,West,273,0.0,0.0,67,0.00,NA,NA,-99.99,VWS Version 10.38,2013-02-13 06:29:00,
2013-02-13 01:34:00,29.8,20.2,30.02,West,273,0.0,0.0,67,0.00,NA,NA,-99.99,VWS Version 10.38,2013-02-13 06:34:00,
2013-02-13 01:39:00,30.0,20.4,30.02,West,273,0.0,0.0,67,0.00,NA,NA,-99.99,VWS Version 10.38,2013-02-13 06:39:00,
2013-02-13 01:44:00,29.8,20.2,30.02,West,273,0.0,0.0,67,0.00,NA,NA,-99.99,VWS Version 10.38,2013-02-13 06:44:00,
2013-02-13 01:49:00,30.0,20.4,30.05,West,273,0.0,0.0,67,0.00,NA,NA,-99.99,VWS Version 10.38,2013-02-13 06:49:00,
2013-02-13 01:54:00,30.0,20.4,30.05,West,273,0.0,0.0,67,0.00,NA,NA,-99.99,VWS Version 10.38,2013-02-13 06:54:00,
2013-02-13 01:59:00,29.8,20.2,30.05,West,273,0.0,0.0,67,0.00,NA,NA,-99.99,VWS Version 10.38,2013-02-13 06:59:00,
2013-02-13 02:04:00,29.8,20.2,30.05,West,273,0.0,0.0,67,0.00,NA,NA,-99.99,VWS Version 10.38,2013-02-13 07:04:00,
2013-02-13 02:09:00,29.7,20.1,30.05,West,273,0.0,0.0,67,0.00,NA,NA,-99.99,VWS Version 10.38,2013-02-13 07:09:00,
2013-02-13 02:14:00,29.5,19.9,30.05,West,273,0.0,0.0,67,0.00,NA,NA,-99.99,VWS Version 10.38,2013-02-13 07:14:00,
2013-02-13 02:19:00,29.3,19.7,30.05,West,273,0.0,0.0,67,0.00,NA,NA,-99.99,VWS Version 10.38,2013-02-13 07:19:00,
2013-02-13 02:24:00,28.9,19.4,30.05,West,273,0.0,0.0,67,0.00,NA,NA,-99.99,VWS Version 10.38,2013-02-13 07:24:00,
2013-02-13 02:29:00,28.6,19.0,30.05,West,273,0.0,0.0,67,0.00,NA,NA,-99.99,VWS Version 10.38,2013-02-13 07:29:00,
2013-02-13 02:34:00,28.2,18.7,30.05,West,273,0.0,0.0,67,0.00,NA,NA,-99.99,VWS Version 10.38,2013-02-13 07:34:00,
2013-02-13 02:39:00,27.9,18.3,30.05,West,273,0.0,0.0,67,0.00,NA,NA,-99.99,VWS Version 10.38,2013-02-13 07:39:00,
2013-02-13 02:44:00,27.5,18.0,30.05,West,273,0.0,0.0,67,0.00,NA,NA,-99.99,VWS Version 10.38,2013-02-13 07:44:00,
2013-02-13 02:49:00,27.5,18.0,30.05,West,273,0.0,0.0,67,0.00,NA,NA,-99.99,VWS Version 10.38,2013-02-13 07:49:00,
2013-02-13 02:54:00,27.1,17.6,30.05,WNW,288,0.0,0.0,67,0.00,NA,NA,-99.99,VWS Version 10.38,2013-02-13 07:54:00,
2013-02-13 02:59:00,27.1,18.0,30.05,SW,228,0.0,0.0,68,0.00,NA,NA,-99.99,VWS Version 10.38,2013-02-13 07:59:00,
2013-02-13 03:04:00,27.0,17.8,30.05,SW,226,0.0,0.0,68,0.00,NA,NA,-99.99,VWS Version 10.38,2013-02-13 08:04:00,
2013-02-13 03:09:00,26.8,17.6,30.05,SW,226,0.0,0.0,68,0.00,NA,NA,-99.99,VWS Version 10.38,2013-02-13 08:09:00,
2013-02-13 03:14:00,26.6,17.5,30.05,SW,226,0.0,0.0,68,0.00,NA,NA,-99.99,VWS Version 10.38,2013-02-13 08:14:00,
2013-02-13 03:19:00,26.4,17.3,30.05,SW,226,0.0,0.0,68,0.00,NA,NA,-99.99,VWS Version 10.38,2013-02-13 08:19:00,
2013-02-13 03:24:00,26.2,17.5,30.05,SW,226,0.0,0.0,69,0.00,NA,NA,-99.99,VWS Version 10.38,2013-02-13 08:24:00,
2013-02-13 03:29:00,26.1,17.3,30.05,SW,226,0.0,0.0,69,0.00,NA,NA,-99.99,VWS Version 10.38,2013-02-13 08:29:00,
2013-02-13 03:39:00,25.7,17.0,30.05,SW,227,0.0,0.0,69,0.00,NA,NA,-99.99,VWS Version 10.38,2013-02-13 08:39:00,
2013-02-13 03:44:00,25.7,17.0,30.05,SW,227,0.0,0.0,69,0.00,NA,NA,-99.99,VWS Version 10.38,2013-02-13 08:44:00,
2013-02-13 03:54:00,25.2,16.4,30.05,WSW,241,0.0,0.0,69,0.00,NA,NA,-99.99,VWS Version 10.38,2013-02-13 08:54:00,
2013-02-13 03:59:00,25.0,16.3,30.05,WSW,241,0.0,0.0,69,0.00,NA,NA,-99.99,VWS Version 10.38,2013-02-13 08:59:00,
2013-02-13 04:04:00,25.2,16.8,30.05,SSW,209,0.0,0.0,70,0.00,NA,NA,-99.99,VWS Version 10.38,2013-02-13 09:04:00,
2013-02-13 04:09:00,25.0,16.6,30.05,SSW,209,0.0,0.0,70,0.00,NA,NA,-99.99,VWS Version 10.38,2013-02-13 09:09:00,
2013-02-13 04:14:00,24.6,16.2,30.05,SSW,209,0.0,0.0,70,0.00,NA,NA,-99.99,VWS Version 10.38,2013-02-13 09:14:00,
2013-02-13 04:19:00,24.3,15.9,30.05,SSW,209,0.0,0.0,70,0.00,NA,NA,-99.99,VWS Version 10.38,2013-02-13 09:19:00,
2013-02-13 04:24:00,24.3,15.9,30.05,SSW,209,0.0,0.0,70,0.00,NA,NA,-99.99,VWS Version 10.38,2013-02-13 09:24:00,
2013-02-13 04:29:00,24.1,15.7,30.05,SSW,209,0.0,0.0,70,0.00,NA,NA,-99.99,VWS Version 10.38,2013-02-13 09:29:00,
2013-02-13 04:34:00,24.1,16.0,30.05,SSW,209,0.0,0.0,71,0.00,NA,NA,-99.99,VWS Version 10.38,2013-02-13 09:34:00,
2013-02-13 04:39:00,23.9,15.9,30.05,SSW,209,0.0,0.0,71,0.00,NA,NA,-99.99,VWS Version 10.38,2013-02-13 09:39:00,
2013-02-13 04:44:00,23.9,15.9,30.05,SSW,209,0.0,0.0,71,0.00,NA,NA,-99.99,VWS Version 10.38,2013-02-13 09:44:00,
2013-02-13 04:49:00,23.9,15.9,30.05,SSW,209,0.0,0.0,71,0.00,NA,NA,-99.99,VWS Version 10.38,2013-02-13 09:49:00,
2013-02-13 04:54:00,23.7,15.7,30.05,SSW,209,0.0,0.0,71,0.00,NA,NA,-99.99,VWS Version 10.38,2013-02-13 09:54:00,
2013-02-13 04:59:00,23.9,16.2,30.05,SSW,209,0.0,0.0,72,0.00,NA,NA,-99.99,VWS Version 10.38,2013-02-13 09:59:00,
2013-02-13 05:04:00,24.1,16.4,30.05,SSW,209,0.0,0.0,72,0.00,NA,NA,-99.99,VWS Version 10.38,2013-02-13 10:04:00,
2013-02-13 05:09:00,24.1,16.4,30.05,SSW,209,0.0,0.0,72,0.00,NA,NA,-99.99,VWS Version 10.38,2013-02-13 10:09:00,
2013-02-13 05:14:00,24.1,16.7,30.05,SSW,209,0.0,0.0,73,0.00,NA,NA,-99.99,VWS Version 10.38,2013-02-13 10:14:00,
2013-02-13 05:20:00,23.9,16.5,30.02,SSW,209,0.0,0.0,73,0.00,NA,NA,-99.99,VWS Version 10.38,2013-02-13 10:20:00,
2013-02-13 05:29:00,23.7,16.4,30.02,SSW,209,0.0,0.0,73,0.00,NA,NA,-99.99,VWS Version 10.38,2013-02-13 10:29:00,
2013-02-13 05:34:00,23.2,15.8,30.02,SSW,209,0.0,0.0,73,0.00,NA,NA,-99.99,VWS Version 10.38,2013-02-13 10:34:00,
2013-02-13 05:39:00,22.8,15.5,30.02,SSW,209,0.0,0.0,73,0.00,NA,NA,-99.99,VWS Version 10.38,2013-02-13 10:39:00,
2013-02-13 05:44:00,22.6,15.3,30.02,SSW,209,0.0,0.0,73,0.00,NA,NA,-99.99,VWS Version 10.38,2013-02-13 10:44:00,
2013-02-13 05:49:00,22.5,15.4,30.02,SSW,209,0.0,0.0,74,0.00,NA,NA,-99.99,VWS Version 10.38,2013-02-13 10:49:00,
2013-02-13 05:54:00,22.5,15.4,30.02,SSW,209,0.0,0.0,74,0.00,NA,NA,-99.99,VWS Version 10.38,2013-02-13 10:54:00,
2013-02-13 05:59:00,22.5,15.4,30.02,SSW,209,0.0,0.0,74,0.00,NA,NA,-99.99,VWS Version 10.38,2013-02-13 10:59:00,
2013-02-13 06:04:00,22.5,15.4,30.02,SSW,209,0.0,0.0,74,0.00,NA,NA,-99.99,VWS Version 10.38,2013-02-13 11:04:00,
2013-02-13 06:09:00,22.3,15.3,30.02,SSW,209,0.0,0.0,74,0.00,NA,NA,-99.99,VWS Version 10.38,2013-02-13 11:09:00,
2013-02-13 06:14:00,21.9,14.9,30.02,SSW,209,0.0,0.0,74,0.00,NA,NA,-99.99,VWS Version 10.38,2013-02-13 11:14:00,
2013-02-13 06:19:00,21.7,14.7,30.02,SSW,209,0.0,0.0,74,0.00,NA,NA,-99.99,VWS Version 10.38,2013-02-13 11:19:00,
2013-02-13 06:24:00,21.9,15.2,30.02,SSW,209,0.0,0.0,75,0.00,NA,NA,-99.99,VWS Version 10.38,2013-02-13 11:24:00,
2013-02-13 06:29:00,22.1,15.4,30.02,SSW,209,0.0,0.0,75,0.00,NA,NA,-99.99,VWS Version 10.38,2013-02-13 11:29:00,
2013-02-13 06:34:00,21.9,15.2,30.02,SSW,209,0.0,0.0,75,0.00,NA,NA,-99.99,VWS Version 10.38,2013-02-13 11:34:00,
2013-02-13 06:39:00,21.9,15.2,30.02,SSW,209,0.0,0.0,75,0.00,NA,NA,-99.99,VWS Version 10.38,2013-02-13 11:39:00,
2013-02-13 06:44:00,21.7,15.1,30.02,SSW,209,0.0,0.0,75,0.00,NA,NA,-99.99,VWS Version 10.38,2013-02-13 11:44:00,
2013-02-13 06:49:00,21.7,15.4,29.99,SSW,209,0.0,0.0,76,0.00,NA,NA,-99.99,VWS Version 10.38,2013-02-13 11:49:00,
2013-02-13 06:54:00,21.9,15.5,29.99,SSW,209,0.0,0.0,76,0.00,NA,NA,-99.99,VWS Version 10.38,2013-02-13 11:54:00,
2013-02-13 06:59:00,22.1,15.7,29.99,SSW,209,0.0,0.0,76,0.00,NA,NA,-99.99,VWS Version 10.38,2013-02-13 11:59:00,
2013-02-13 07:04:00,21.9,15.5,30.02,SSW,209,0.0,0.0,76,0.00,NA,NA,-99.99,VWS Version 10.38,2013-02-13 12:04:00,
2013-02-13 07:09:00,21.9,15.5,30.02,SSW,209,0.0,0.0,76,0.00,NA,NA,-99.99,VWS Version 10.38,2013-02-13 12:09:00,
2013-02-13 07:14:00,21.9,15.8,30.02,SSW,209,0.0,0.0,77,0.00,NA,NA,-99.99,VWS Version 10.38,2013-02-13 12:14:00,
2013-02-13 07:19:00,22.1,16.0,30.02,SSW,209,0.0,0.0,77,0.00,NA,NA,-99.99,VWS Version 10.38,2013-02-13 12:19:00,
2013-02-13 07:24:00,22.5,16.6,30.02,SSW,209,0.0,0.0,78,0.00,NA,NA,-99.99,VWS Version 10.38,2013-02-13 12:24:00,
2013-02-13 07:29:00,22.6,16.8,30.02,SSW,209,0.0,0.0,78,0.00,NA,NA,-99.99,VWS Version 10.38,2013-02-13 12:29:00,
2013-02-13 07:34:00,22.6,16.8,30.02,SSW,209,0.0,0.0,78,0.00,NA,NA,-99.99,VWS Version 10.38,2013-02-13 12:34:00,
2013-02-13 07:39:00,23.0,17.2,30.02,SSW,209,0.0,0.0,78,0.00,NA,NA,-99.99,VWS Version 10.38,2013-02-13 12:39:00,
2013-02-13 07:44:00,23.4,17.5,30.02,SSW,209,0.0,0.0,78,0.00,NA,NA,-99.99,VWS Version 10.38,2013-02-13 12:44:00,
2013-02-13 07:49:00,23.4,17.5,30.02,SSW,209,0.0,0.0,78,0.00,NA,NA,-99.99,VWS Version 10.38,2013-02-13 12:49:00,
2013-02-13 07:54:00,23.5,17.7,30.02,SSW,209,0.0,0.0,78,0.00,NA,NA,-99.99,VWS Version 10.38,2013-02-13 12:54:00,
2013-02-13 07:59:00,23.7,18.2,30.02,SSW,209,0.0,0.0,79,0.00,NA,NA,-99.99,VWS Version 10.38,2013-02-13 12:59:00,
2013-02-13 08:04:00,24.1,18.5,30.02,SSW,209,0.0,0.0,79,0.00,NA,NA,-99.99,VWS Version 10.38,2013-02-13 13:04:00,
2013-02-13 08:09:00,24.4,18.9,30.02,SSW,209,0.0,0.0,79,0.00,NA,NA,-99.99,VWS Version 10.38,2013-02-13 13:09:00,
2013-02-13 08:14:00,25.0,19.4,30.02,SSW,209,0.0,0.0,79,0.00,NA,NA,-99.99,VWS Version 10.38,2013-02-13 13:14:00,
2013-02-13 08:19:00,25.5,20.2,30.02,SSW,209,0.0,0.0,80,0.00,NA,NA,-99.99,VWS Version 10.38,2013-02-13 13:19:00,
2013-02-13 08:24:00,26.1,20.8,30.02,SSW,209,0.0,0.0,80,0.00,NA,NA,-99.99,VWS Version 10.38,2013-02-13 13:24:00,
2013-02-13 08:29:00,26.2,20.9,30.02,SSW,209,0.0,0.0,80,0.00,NA,NA,-99.99,VWS Version 10.38,2013-02-13 13:29:00,
2013-02-13 08:34:00,26.8,21.5,30.02,SSW,209,0.0,0.0,80,0.00,NA,NA,-99.99,VWS Version 10.38,2013-02-13 13:34:00,
2013-02-13 08:39:00,27.5,22.1,30.02,SSW,209,0.0,0.0,80,0.00,NA,NA,-99.99,VWS Version 10.38,2013-02-13 13:39:00,
2013-02-13 08:44:00,28.0,22.7,30.02,SSW,209,0.0,0.0,80,0.00,NA,NA,-99.99,VWS Version 10.38,2013-02-13 13:44:00,
2013-02-13 08:49:00,28.6,23.2,30.02,SSE,150,0.0,0.0,80,0.00,NA,NA,-99.99,VWS Version 10.38,2013-02-13 13:49:00,
2013-02-13 08:54:00,29.5,24.4,30.02,SSE,150,0.0,0.0,81,0.00,NA,NA,-99.99,VWS Version 10.38,2013-02-13 13:54:00,
2013-02-13 08:59:00,30.2,25.1,30.02,SSE,150,0.0,0.0,81,0.00,NA,NA,-99.99,VWS Version 10.38,2013-02-13 13:59:00,
2013-02-13 09:04:00,31.1,26.3,30.02,ESE,112,0.0,0.0,82,0.00,NA,NA,-99.99,VWS Version 10.38,2013-02-13 14:04:00,
2013-02-13 09:09:00,32.0,27.1,30.02,ESE,112,0.0,0.0,82,0.00,NA,NA,-99.99,VWS Version 10.38,2013-02-13 14:09:00,
2013-02-13 09:14:00,32.9,28.3,30.02,ESE,112,0.0,0.0,83,0.00,NA,NA,-99.99,VWS Version 10.38,2013-02-13 14:14:00,
2013-02-13 09:19:00,33.6,29.0,30.02,East,93,0.0,0.0,83,0.00,NA,NA,-99.99,VWS Version 10.38,2013-02-13 14:19:00,
2013-02-13 09:24:00,34.3,29.7,30.02,East,96,0.0,0.0,83,0.00,NA,NA,-99.99,VWS Version 10.38,2013-02-13 14:24:00,
2013-02-13 09:29:00,34.9,30.2,30.02,East,96,0.0,0.0,83,0.00,NA,NA,-99.99,VWS Version 10.38,2013-02-13 14:29:00,
2013-02-13 09:34:00,35.6,31.0,30.02,East,96,0.0,0.0,83,0.00,NA,NA,-99.99,VWS Version 10.38,2013-02-13 14:34:00,
2013-02-13 09:39:00,35.8,30.5,30.02,NNW,333,2.7,2.7,81,0.00,NA,NA,-99.99,VWS Version 10.38,2013-02-13 14:39:00,
2013-02-13 09:44:00,36.1,28.7,30.02,WNW,298,6.3,6.3,74,0.00,NA,NA,-99.99,VWS Version 10.38,2013-02-13 14:44:00,
2013-02-13 09:49:00,36.3,27.5,30.02,SW,226,0.0,0.0,70,0.00,NA,NA,-99.99,VWS Version 10.38,2013-02-13 14:49:00,
2013-02-13 09:54:00,36.7,22.0,30.02,SW,226,2.7,2.7,55,0.00,NA,NA,-99.99,VWS Version 10.38,2013-02-13 14:54:00,
2013-02-13 09:59:00,36.9,20.0,30.02,North,5,0.0,0.0,50,0.00,NA,NA,-99.99,VWS Version 10.38,2013-02-13 14:59:00,
2013-02-13 10:04:00,36.9,15.9,29.99,NW,315,2.2,2.2,42,0.00,NA,NA,-99.99,VWS Version 10.38,2013-02-13 15:04:00,
2013-02-13 10:09:00,37.0,16.1,29.99,SSW,202,3.1,3.1,42,0.00,NA,NA,-99.99,VWS Version 10.38,2013-02-13 15:09:00,
2013-02-13 10:14:00,37.4,17.0,29.99,West,280,6.3,6.3,43,0.00,NA,NA,-99.99,VWS Version 10.38,2013-02-13 15:14:00,
2013-02-13 10:19:00,37.6,17.1,29.99,NW,310,5.4,5.4,43,0.00,NA,NA,-99.99,VWS Version 10.38,2013-02-13 15:19:00,
2013-02-13 10:24:00,37.4,14.1,29.99,NNW,329,3.6,3.6,38,0.00,NA,NA,-99.99,VWS Version 10.38,2013-02-13 15:24:00,
2013-02-13 10:29:00,37.4,14.7,29.99,West,265,0.0,0.0,39,0.00,NA,NA,-99.99,VWS Version 10.38,2013-02-13 15:29:00,
2013-02-13 10:34:00,37.9,15.2,29.99,South,186,2.7,2.7,39,0.00,NA,NA,-99.99,VWS Version 10.38,2013-02-13 15:34:00,
2013-02-13 10:39:00,38.3,15.5,29.99,ESE,117,3.6,3.6,39,0.00,NA,NA,-99.99,VWS Version 10.38,2013-02-13 15:39:00,
2013-02-13 10:44:00,38.7,15.9,29.99,WNW,300,4.9,4.9,39,0.00,NA,NA,-99.99,VWS Version 10.38,2013-02-13 15:44:00,
2013-02-13 10:49:00,39.0,16.8,29.99,WSW,248,5.8,5.8,40,0.00,NA,NA,-99.99,VWS Version 10.38,2013-02-13 15:49:00,
2013-02-13 10:54:00,38.8,15.4,29.99,WNW,282,3.1,3.1,38,0.00,NA,NA,-99.99,VWS Version 10.38,2013-02-13 15:54:00,
2013-02-13 10:59:00,39.0,16.2,29.99,NNE,22,0.0,0.0,39,0.00,NA,NA,-99.99,VWS Version 10.38,2013-02-13 15:59:00,
2013-02-13 11:04:00,39.4,16.5,29.99,SW,235,3.1,3.1,39,0.00,NA,NA,-99.99,VWS Version 10.38,2013-02-13 16:04:00,
2013-02-13 11:09:00,40.1,17.1,29.99,ESE,118,0.0,0.0,39,0.00,NA,NA,-99.99,VWS Version 10.38,2013-02-13 16:09:00,
2013-02-13 11:14:00,40.3,16.1,29.99,West,269,5.4,5.4,37,0.00,NA,NA,-99.99,VWS Version 10.38,2013-02-13 16:14:00,
2013-02-13 11:19:00,40.3,15.5,29.99,WSW,239,4.0,4.0,36,0.00,NA,NA,-99.99,VWS Version 10.38,2013-02-13 16:19:00,
2013-02-13 11:24:00,40.3,16.7,29.99,WSW,242,5.4,5.4,38,0.00,NA,NA,-99.99,VWS Version 10.38,2013-02-13 16:24:00,
2013-02-13 11:29:00,40.5,16.3,29.99,SW,230,2.7,2.7,37,0.00,NA,NA,-99.99,VWS Version 10.38,2013-02-13 16:29:00,
2013-02-13 11:34:00,40.6,15.1,29.99,SSW,196,4.0,4.0,35,0.00,NA,NA,-99.99,VWS Version 10.38,2013-02-13 16:34:00,
2013-02-13 11:39:00,41.0,16.1,29.99,WNW,291,3.6,3.6,36,0.00,NA,NA,-99.99,VWS Version 10.38,2013-02-13 16:39:00,
2013-02-13 11:44:00,41.0,16.1,29.99,SSW,209,3.1,3.1,36,0.00,NA,NA,-99.99,VWS Version 10.38,2013-02-13 16:44:00,
2013-02-13 11:49:00,40.8,15.3,29.99,SW,214,4.9,4.9,35,0.00,NA,NA,-99.99,VWS Version 10.38,2013-02-13 16:49:00,
2013-02-13 11:54:00,40.8,15.9,29.99,WSW,241,4.0,4.0,36,0.00,NA,NA,-99.99,VWS Version 10.38,2013-02-13 16:54:00,
2013-02-13 11:59:00,41.0,14.8,29.99,West,280,3.6,3.6,34,0.00,NA,NA,-99.99,VWS Version 10.38,2013-02-13 16:59:00,
2013-02-13 12:04:00,41.0,15.5,29.99,SW,232,5.4,5.4,35,0.00,NA,NA,-99.99,VWS Version 10.38,2013-02-13 17:04:00,
2013-02-13 12:09:00,41.2,14.3,29.99,SW,230,5.4,5.4,33,0.00,NA,NA,-99.99,VWS Version 10.38,2013-02-13 17:09:00,
2013-02-13 12:19:00,41.5,15.3,29.99,WNW,292,5.4,5.4,34,0.00,NA,NA,-99.99,VWS Version 10.38,2013-02-13 17:19:00,
2013-02-13 12:24:00,41.5,15.9,29.99,SW,235,5.4,5.4,35,0.00,NA,NA,-99.99,VWS Version 10.38,2013-02-13 17:24:00,
2013-02-13 12:29:00,41.4,14.4,29.99,WNW,300,3.1,3.1,33,0.00,NA,NA,-99.99,VWS Version 10.38,2013-02-13 17:29:00,
2013-02-13 12:34:00,41.4,13.7,29.99,NNW,335,2.7,2.7,32,0.00,NA,NA,-99.99,VWS Version 10.38,2013-02-13 17:34:00,
2013-02-13 12:39:00,41.4,13.7,29.99,NNW,341,4.0,4.0,32,0.00,NA,NA,-99.99,VWS Version 10.38,2013-02-13 17:39:00,
2013-02-13 12:44:00,41.5,14.6,29.99,West,271,0.0,0.0,33,0.00,NA,NA,-99.99,VWS Version 10.38,2013-02-13 17:44:00,
2013-02-13 12:49:00,42.1,15.8,29.96,WSW,247,4.0,4.0,34,0.00,NA,NA,-99.99,VWS Version 10.38,2013-02-13 17:49:00,
2013-02-13 12:54:00,42.6,16.2,29.96,ENE,58,0.0,0.0,34,0.00,NA,NA,-99.99,VWS Version 10.38,2013-02-13 17:54:00,
2013-02-13 12:59:00,43.0,15.9,29.96,WNW,301,4.9,4.9,33,0.00,NA,NA,-99.99,VWS Version 10.38,2013-02-13 17:59:00,
2013-02-13 13:04:00,42.8,15.0,29.96,WSW,258,6.3,6.3,32,0.00,NA,NA,-99.99,VWS Version 10.38,2013-02-13 18:04:00,
2013-02-13 13:14:00,42.6,14.8,29.96,SSW,213,3.6,3.6,32,0.00,NA,NA,-99.99,VWS Version 10.38,2013-02-13 18:14:00,
2013-02-13 13:19:00,43.0,15.2,29.96,WSW,244,0.0,0.0,32,0.00,NA,NA,-99.99,VWS Version 10.38,2013-02-13 18:19:00,
2013-02-13 13:24:00,43.5,14.9,29.96,West,271,8.3,8.3,31,0.00,NA,NA,-99.99,VWS Version 10.38,2013-02-13 18:24:00,
2013-02-13 13:29:00,43.2,13.8,29.96,NW,306,3.6,3.6,30,0.00,NA,NA,-99.99,VWS Version 10.38,2013-02-13 18:29:00,
2013-02-13 13:34:00,43.0,13.7,29.93,West,264,4.9,4.9,30,0.00,NA,NA,-99.99,VWS Version 10.38,2013-02-13 18:34:00,
2013-02-13 13:44:00,43.3,14.8,29.93,SW,229,3.1,3.1,31,0.00,NA,NA,-99.99,VWS Version 10.38,2013-02-13 18:44:00,
2013-02-13 13:49:00,43.7,15.1,29.93,South,188,0.0,0.0,31,0.00,NA,NA,-99.99,VWS Version 10.38,2013-02-13 18:49:00,
2013-02-13 13:54:00,44.1,14.6,29.93,NW,324,3.6,3.6,30,0.00,NA,NA,-99.99,VWS Version 10.38,2013-02-13 18:54:00,
2013-02-13 13:59:00,44.1,14.6,29.93,WSW,243,0.0,0.0,30,0.00,NA,NA,-99.99,VWS Version 10.38,2013-02-13 18:59:00,
2013-02-13 14:04:00,44.2,15.5,29.91,WNW,302,0.0,0.0,31,0.00,NA,NA,-99.99,VWS Version 10.38,2013-02-13 19:04:00,
2013-02-13 14:14:00,44.6,15.9,29.91,SW,233,4.0,4.0,31,0.00,NA,NA,-99.99,VWS Version 10.38,2013-02-13 19:14:00,
2013-02-13 14:19:00,44.8,15.3,29.91,SSW,210,5.4,5.4,30,0.00,NA,NA,-99.99,VWS Version 10.38,2013-02-13 19:19:00,
2013-02-13 14:24:00,44.6,15.1,29.91,West,273,5.8,5.8,30,0.00,NA,NA,-99.99,VWS Version 10.38,2013-02-13 19:24:00,
2013-02-13 14:29:00,44.2,14.8,29.91,North,0,2.7,2.7,30,0.00,NA,NA,-99.99,VWS Version 10.38,2013-02-13 19:29:00,
2013-02-13 14:39:00,43.9,15.2,29.91,SSW,213,0.0,0.0,31,0.00,NA,NA,-99.99,VWS Version 10.38,2013-02-13 19:39:00,
2013-02-13 14:44:00,44.2,15.5,29.91,South,189,0.0,0.0,31,0.00,NA,NA,-99.99,VWS Version 10.38,2013-02-13 19:44:00,
2013-02-13 14:49:00,44.4,15.7,29.88,South,180,0.0,0.0,31,0.00,NA,NA,-99.99,VWS Version 10.38,2013-02-13 19:49:00,
2013-02-13 14:54:00,44.8,15.3,29.88,SE,141,3.6,3.6,30,0.00,NA,NA,-99.99,VWS Version 10.38,2013-02-13 19:54:00,
2013-02-13 14:59:00,45.0,15.4,29.88,SE,140,0.0,0.0,30,0.00,NA,NA,-99.99,VWS Version 10.38,2013-02-13 19:59:00,
2013-02-13 15:09:00,44.6,15.1,29.91,SSW,204,2.7,2.7,30,0.00,NA,NA,-99.99,VWS Version 10.38,2013-02-13 20:09:00,
2013-02-13 15:14:00,44.1,14.6,29.91,West,281,2.7,2.7,30,0.00,NA,NA,-99.99,VWS Version 10.38,2013-02-13 20:14:00,
2013-02-13 15:19:00,43.2,14.6,29.88,West,266,2.7,2.7,31,0.00,NA,NA,-99.99,VWS Version 10.38,2013-02-13 20:19:00,
2013-02-13 15:24:00,42.1,13.6,29.88,SW,216,3.1,3.1,31,0.00,NA,NA,-99.99,VWS Version 10.38,2013-02-13 20:24:00,
2013-02-13 15:29:00,41.0,13.4,29.88,WSW,241,4.9,4.9,32,0.00,NA,NA,-99.99,VWS Version 10.38,2013-02-13 20:29:00,
2013-02-13 15:39:00,40.6,13.8,29.88,SSW,205,2.7,2.7,33,0.00,NA,NA,-99.99,VWS Version 10.38,2013-02-13 20:39:00,
2013-02-13 15:44:00,40.5,13.6,29.88,WSW,251,2.7,2.7,33,0.00,NA,NA,-99.99,VWS Version 10.38,2013-02-13 20:44:00,
2013-02-13 15:49:00,40.1,13.3,29.88,West,272,0.0,0.0,33,0.00,NA,NA,-99.99,VWS Version 10.38,2013-02-13 20:49:00,
2013-02-13 15:54:00,39.7,13.0,29.88,SSW,213,0.0,0.0,33,0.00,NA,NA,-99.99,VWS Version 10.38,2013-02-13 20:54:00,
2013-02-13 15:59:00,38.8,12.2,29.88,SW,214,0.0,0.0,33,0.00,NA,NA,-99.99,VWS Version 10.38,2013-02-13 20:59:00,
2013-02-13 16:09:00,37.4,11.6,29.88,SE,133,0.0,0.0,34,0.00,NA,NA,-99.99,VWS Version 10.38,2013-02-13 21:09:00,
2013-02-13 16:14:00,37.2,12.1,29.88,SE,133,0.0,0.0,35,0.00,NA,NA,-99.99,VWS Version 10.38,2013-02-13 21:14:00,
2013-02-13 16:19:00,37.0,11.9,29.88,SE,133,0.0,0.0,35,0.00,NA,NA,-99.99,VWS Version 10.38,2013-02-13 21:19:00,
2013-02-13 16:24:00,37.0,12.6,29.88,SE,133,0.0,0.0,36,0.00,NA,NA,-99.99,VWS Version 10.38,2013-02-13 21:24:00,
2013-02-13 16:34:00,36.7,12.9,29.88,SSW,194,0.0,0.0,37,0.00,NA,NA,-99.99,VWS Version 10.38,2013-02-13 21:34:00,
2013-02-13 16:39:00,36.1,13.0,29.88,SSW,194,0.0,0.0,38,0.00,NA,NA,-99.99,VWS Version 10.38,2013-02-13 21:39:00,
2013-02-13 16:44:00,36.0,13.4,29.88,SSW,194,0.0,0.0,39,0.00,NA,NA,-99.99,VWS Version 10.38,2013-02-13 21:44:00,
2013-02-13 16:49:00,35.6,13.1,29.88,SSW,196,0.0,0.0,39,0.00,NA,NA,-99.99,VWS Version 10.38,2013-02-13 21:49:00,
2013-02-13 16:54:00,35.2,13.4,29.88,ESE,117,0.0,0.0,40,0.00,NA,NA,-99.99,VWS Version 10.38,2013-02-13 21:54:00,
2013-02-13 17:04:00,34.7,13.4,29.88,SSE,147,2.2,2.2,41,0.00,NA,NA,-99.99,VWS Version 10.38,2013-02-13 22:04:00,
2013-02-13 17:09:00,34.3,13.1,29.88,SW,221,0.0,0.0,41,0.00,NA,NA,-99.99,VWS Version 10.38,2013-02-13 22:09:00,
2013-02-13 17:14:00,34.2,12.9,29.88,SSE,147,2.2,2.2,41,0.00,NA,NA,-99.99,VWS Version 10.38,2013-02-13 22:14:00,
2013-02-13 17:19:00,34.0,12.8,29.88,South,184,0.0,0.0,41,0.00,NA,NA,-99.99,VWS Version 10.38,2013-02-13 22:19:00,
2013-02-13 17:29:00,33.4,12.8,29.88,SSE,150,4.0,4.0,42,0.00,NA,NA,-99.99,VWS Version 10.38,2013-02-13 22:29:00,
2013-02-13 17:34:00,33.3,12.7,29.88,SE,141,2.7,2.7,42,0.00,NA,NA,-99.99,VWS Version 10.38,2013-02-13 22:34:00,
2013-02-13 17:39:00,33.3,12.7,29.88,SSW,200,0.0,0.0,42,0.00,NA,NA,-99.99,VWS Version 10.38,2013-02-13 22:39:00,
2013-02-13 17:44:00,33.3,13.2,29.88,SSE,147,0.0,0.0,43,0.00,NA,NA,-99.99,VWS Version 10.38,2013-02-13 22:44:00,
2013-02-13 17:54:00,33.3,13.2,29.88,SSE,159,0.0,0.0,43,0.00,NA,NA,-99.99,VWS Version 10.38,2013-02-13 22:54:00,
2013-02-13 17:59:00,33.3,13.2,29.88,SE,135,0.0,0.0,43,0.00,NA,NA,-99.99,VWS Version 10.38,2013-02-13 22:59:00,
2013-02-13 18:04:00,33.4,13.4,29.88,SE,135,0.0,0.0,43,0.00,NA,NA,-99.99,VWS Version 10.38,2013-02-13 23:04:00,
2013-02-13 18:09:00,33.4,13.4,29.88,SE,135,0.0,0.0,43,0.00,NA,NA,-99.99,VWS Version 10.38,2013-02-13 23:09:00,
2013-02-13 18:14:00,33.4,13.4,29.88,SE,135,0.0,0.0,43,0.00,NA,NA,-99.99,VWS Version 10.38,2013-02-13 23:14:00,
2013-02-13 18:29:00,33.4,13.4,29.85,SE,135,0.0,0.0,43,0.00,NA,NA,-99.99,VWS Version 10.38,2013-02-13 23:29:00,
2013-02-13 18:34:00,33.1,13.6,29.85,SE,135,0.0,0.0,44,0.00,NA,NA,-99.99,VWS Version 10.38,2013-02-13 23:34:00,
2013-02-13 18:39:00,32.5,13.1,29.85,SE,135,0.0,0.0,44,0.00,NA,NA,-99.99,VWS Version 10.38,2013-02-13 23:39:00,
2013-02-13 18:44:00,32.2,12.7,29.85,SE,135,0.0,0.0,44,0.00,NA,NA,-99.99,VWS Version 10.38,2013-02-13 23:44:00,
2013-02-13 18:54:00,31.1,13.2,29.85,SE,135,0.0,0.0,47,0.00,NA,NA,-99.99,VWS Version 10.38,2013-02-13 23:54:00,